You are listening to:
KCLT Approach (Arrival) - Charlotte, North Carolina, United States

KCLT 230952Z 24005KT 10SM FEW250 07/03 A3019 RMK AO2 SLP237 T00670033

If stream doesn't start automatically press the play button
If stream stops then reload player then press play